createdAt,value
2019-01-22T04:01:05.875Z,986.62
2019-01-22T04:02:06.339Z,986.58
2019-01-22T04:04:06.785Z,986.49
2019-01-22T04:05:07.047Z,986.45
2019-01-22T04:06:06.761Z,986.57
2019-01-22T04:07:07.155Z,986.53
2019-01-22T04:08:06.737Z,986.53
2019-01-22T04:09:06.947Z,986.53
2019-01-22T04:10:06.719Z,986.51
2019-01-22T04:11:05.550Z,986.53
2019-01-22T04:12:05.445Z,986.49
2019-01-22T04:13:05.579Z,986.49
2019-01-22T04:14:05.682Z,986.46
2019-01-22T04:15:05.847Z,986.45
2019-01-22T04:16:06.036Z,986.45
2019-01-22T04:17:06.204Z,986.46
2019-01-22T04:18:06.339Z,986.41
2019-01-22T04:19:06.513Z,986.43
2019-01-22T04:20:06.739Z,986.40
2019-01-22T04:21:06.824Z,986.44
2019-01-22T04:22:06.945Z,986.41
2019-01-22T04:23:07.127Z,986.40
2019-01-22T04:24:07.215Z,986.40
2019-01-22T04:25:07.384Z,986.34
2019-01-22T04:26:07.692Z,986.36
2019-01-22T04:27:07.729Z,986.35
2019-01-22T04:28:07.870Z,986.32
2019-01-22T04:29:08.015Z,986.31
2019-01-22T04:30:08.169Z,986.28
2019-01-22T04:31:08.330Z,986.28
2019-01-22T04:32:08.533Z,986.23
2019-01-22T04:33:08.738Z,986.25
2019-01-22T04:34:08.836Z,986.22
2019-01-22T04:35:09.023Z,986.26
2019-01-22T04:36:09.118Z,986.24
2019-01-22T04:37:09.327Z,986.18
2019-01-22T04:38:09.457Z,986.21
2019-01-22T04:39:09.616Z,986.19
2019-01-22T04:40:10.708Z,986.15
2019-01-22T04:41:09.989Z,986.16
2019-01-22T04:42:10.171Z,986.14
2019-01-22T04:43:10.248Z,986.11
2019-01-22T04:44:10.465Z,986.17
2019-01-22T04:45:10.597Z,986.15
2019-01-22T04:46:10.716Z,986.13
2019-01-22T04:47:10.893Z,986.15
2019-01-22T04:48:11.018Z,986.15
2019-01-22T04:49:11.194Z,986.12
2019-01-22T04:50:11.388Z,986.12
2019-01-22T04:51:11.558Z,986.12
2019-01-22T04:52:11.738Z,986.09
2019-01-22T04:53:11.891Z,986.10
2019-01-22T04:54:12.066Z,986.09
2019-01-22T04:55:12.204Z,986.15
2019-01-22T04:56:12.398Z,986.15
2019-01-22T04:57:12.613Z,986.08
2019-01-22T04:58:12.743Z,986.09
2019-01-22T04:59:12.809Z,986.07
2019-01-22T05:00:13.541Z,986.06
2019-01-22T05:01:13.153Z,986.03
2019-01-22T05:02:13.331Z,986.08
2019-01-22T05:03:13.466Z,986.02
2019-01-22T05:04:13.556Z,986.04
2019-01-22T05:05:13.783Z,986.03
2019-01-22T05:06:13.891Z,986.03
2019-01-22T05:07:14.134Z,986.03
2019-01-22T05:08:14.354Z,986.00
2019-01-22T05:09:14.637Z,985.98
2019-01-22T05:10:14.747Z,985.97
2019-01-22T05:11:14.945Z,985.94
2019-01-22T05:12:15.109Z,985.93
2019-01-22T05:13:15.258Z,985.97
2019-01-22T05:14:15.306Z,985.97
2019-01-22T05:15:15.657Z,985.98
2019-01-22T05:16:16.179Z,985.97
2019-01-22T05:17:15.937Z,985.98
2019-01-22T05:18:16.095Z,985.94
2019-01-22T05:19:16.129Z,985.91
2019-01-22T05:20:16.335Z,985.97
2019-01-22T05:21:16.439Z,985.93
2019-01-22T05:22:16.637Z,985.94
2019-01-22T05:23:16.790Z,985.93
2019-01-22T05:24:17.951Z,985.95
2019-01-22T05:25:17.102Z,985.97
2019-01-22T05:26:17.335Z,985.95
2019-01-22T05:27:17.475Z,985.97
2019-01-22T05:28:17.611Z,985.97
2019-01-22T05:29:17.832Z,985.95
2019-01-22T05:30:17.890Z,985.95
2019-01-22T05:31:18.089Z,985.96
2019-01-22T05:32:18.238Z,985.94
2019-01-22T05:33:18.467Z,985.93
2019-01-22T05:34:18.495Z,985.91
2019-01-22T05:35:18.800Z,985.95
2019-01-22T05:36:18.978Z,985.96
2019-01-22T05:37:19.028Z,985.92
2019-01-22T05:38:19.251Z,985.97
2019-01-22T05:39:19.513Z,985.97
2019-01-22T05:40:19.579Z,985.94
2019-01-22T05:41:19.787Z,985.95
2019-01-22T05:42:19.963Z,985.93
2019-01-22T05:45:44.806Z,985.93
2019-01-22T05:46:45.072Z,985.92
2019-01-22T05:47:45.701Z,985.86
2019-01-22T05:48:45.921Z,985.85
2019-01-22T05:49:45.807Z,985.85
2019-01-22T05:50:46.281Z,985.84
2019-01-22T05:51:46.291Z,985.80
2019-01-22T05:52:46.074Z,985.81
2019-01-22T05:53:46.788Z,985.82
2019-01-22T05:54:46.723Z,985.80
2019-01-22T05:55:46.516Z,985.78
2019-01-22T05:56:46.876Z,985.73
2019-01-22T05:57:47.288Z,985.75
2019-01-22T05:58:46.993Z,985.74
2019-01-22T05:59:48.108Z,985.73
2019-01-22T06:00:47.738Z,985.72
2019-01-22T06:01:47.911Z,985.68
2019-01-22T06:03:48.086Z,985.65
2019-01-22T06:04:47.977Z,985.64
2019-01-22T06:05:48.447Z,985.68
2019-01-22T06:06:48.789Z,985.67
2019-01-22T06:07:48.449Z,985.67
2019-01-22T06:08:48.569Z,985.66
2019-01-22T06:09:49.263Z,985.63
2019-01-22T06:10:48.847Z,985.62
2019-01-22T06:11:48.863Z,985.62
2019-01-22T06:12:49.267Z,985.56
2019-01-22T06:14:49.474Z,985.52
2019-01-22T06:15:49.909Z,985.48
2019-01-22T06:16:49.876Z,985.53
2019-01-22T06:17:50.082Z,985.50
2019-01-22T06:18:49.436Z,985.48
2019-01-22T06:19:48.285Z,985.48
2019-01-22T06:20:48.518Z,985.42
2019-01-22T06:21:48.712Z,985.35
2019-01-22T06:22:48.795Z,985.36
2019-01-22T06:23:48.901Z,985.36
2019-01-22T06:24:49.136Z,985.35
2019-01-22T06:25:49.652Z,985.36
2019-01-22T06:26:49.813Z,985.31
2019-01-22T06:27:49.671Z,985.26
2019-01-22T06:28:49.683Z,985.24
2019-01-22T06:29:49.907Z,985.23
2019-01-22T06:30:50.067Z,985.20
2019-01-22T06:31:50.175Z,985.23
2019-01-22T06:32:50.390Z,985.21
2019-01-22T06:33:50.652Z,985.19
2019-01-22T06:34:50.698Z,985.20
2019-01-22T06:35:50.867Z,985.18
2019-01-22T06:36:50.966Z,985.21
2019-01-22T06:37:51.175Z,985.22
2019-01-22T06:38:51.535Z,985.22
2019-01-22T06:39:51.437Z,985.23
2019-01-22T06:40:51.748Z,985.21
2019-01-22T06:41:51.900Z,985.18
2019-01-22T06:42:52.095Z,985.19
2019-01-22T06:43:52.089Z,985.26
2019-01-22T06:44:52.239Z,985.21
2019-01-22T06:45:52.322Z,985.24
2019-01-22T06:46:52.510Z,985.24
2019-01-22T06:47:52.802Z,985.22
2019-01-22T06:48:52.934Z,985.24
2019-01-22T06:49:53.013Z,985.24
2019-01-22T06:50:53.318Z,985.26
2019-01-22T06:51:53.429Z,985.23
2019-01-22T06:52:53.644Z,985.27
2019-01-22T06:53:53.824Z,985.27
2019-01-22T06:54:53.871Z,985.25
2019-01-22T06:55:54.107Z,985.25
2019-01-22T06:56:54.255Z,985.28
2019-01-22T06:57:54.406Z,985.27
2019-01-22T06:58:54.748Z,985.26
2019-01-22T06:59:54.665Z,985.26
2019-01-22T07:01:06.910Z,985.30
2019-01-22T07:02:57.970Z,985.30
2019-01-22T07:04:13.282Z,985.33
2019-01-22T07:05:07.142Z,985.32
2019-01-22T07:05:59.055Z,985.30
2019-01-22T07:06:59.137Z,985.28
2019-01-22T07:09:47.605Z,985.32
2019-01-22T07:10:39.117Z,985.29
2019-01-22T07:11:40.457Z,985.31
2019-01-22T07:12:39.306Z,985.33
2019-01-22T07:13:39.994Z,985.30
2019-01-22T07:14:39.680Z,985.26
2019-01-22T07:15:38.303Z,985.26
2019-01-22T07:16:38.273Z,985.23
2019-01-22T07:17:38.079Z,985.24
2019-01-22T07:18:38.587Z,985.18
2019-01-22T07:19:38.350Z,985.21
2019-01-22T07:20:38.552Z,985.22
2019-01-22T07:21:38.761Z,985.17
2019-01-22T07:22:39.003Z,985.17
2019-01-22T07:23:39.013Z,985.15
2019-01-22T07:24:39.417Z,985.17
2019-01-22T07:25:39.401Z,985.18
2019-01-22T07:26:39.618Z,985.13
2019-01-22T07:27:40.725Z,985.12
2019-01-22T07:30:15.779Z,985.08
2019-01-22T07:31:16.746Z,985.04
2019-01-22T07:32:15.691Z,985.05
2019-01-22T07:33:16.351Z,985.09
2019-01-22T07:34:15.668Z,985.03
2019-01-22T07:35:24.389Z,985.07
2019-01-22T07:36:16.449Z,985.05
2019-01-22T07:37:16.769Z,985.03
2019-01-22T07:38:16.441Z,984.99
2019-01-22T07:39:14.618Z,985.02
2019-01-22T07:40:14.511Z,985.00
2019-01-22T07:41:14.665Z,985.01
2019-01-22T07:42:14.862Z,985.05
2019-01-22T07:43:14.978Z,985.02
2019-01-22T07:44:15.137Z,985.01
2019-01-22T07:45:15.201Z,984.98
2019-01-22T07:46:15.440Z,985.02
2019-01-22T07:47:15.537Z,984.99
2019-01-22T07:48:15.710Z,984.98
2019-01-22T07:49:16.009Z,984.98
2019-01-22T07:50:16.012Z,985.01
2019-01-22T07:51:16.219Z,985.01
2019-01-22T07:52:16.580Z,984.99
2019-01-22T07:53:16.523Z,984.96
2019-01-22T07:54:16.617Z,985.02
2019-01-22T07:55:16.791Z,984.96
2019-01-22T07:56:16.955Z,984.98
2019-01-22T07:57:17.139Z,984.93
2019-01-22T07:58:17.255Z,984.94
2019-01-22T07:59:17.465Z,984.97
2019-01-22T08:00:17.688Z,984.90
2019-01-22T08:01:17.799Z,984.95
2019-01-22T08:02:17.924Z,984.91
2019-01-22T08:03:18.154Z,984.94
2019-01-22T08:04:18.309Z,984.93
2019-01-22T08:05:18.435Z,984.96
2019-01-22T08:06:18.607Z,984.96
2019-01-22T08:07:18.796Z,984.90
2019-01-22T08:08:19.009Z,984.94
2019-01-22T08:09:19.314Z,984.95
2019-01-22T08:10:19.694Z,984.95
2019-01-22T08:11:19.436Z,984.89
2019-01-22T08:12:19.598Z,984.92
2019-01-22T08:13:19.876Z,984.92
2019-01-22T08:14:20.182Z,984.93
2019-01-22T08:15:20.334Z,984.90
2019-01-22T08:16:21.099Z,984.88
2019-01-22T08:17:20.434Z,984.86
2019-01-22T08:18:21.106Z,984.85
2019-01-22T08:19:23.777Z,984.84
2019-01-22T08:20:31.883Z,984.86
2019-01-22T08:21:23.396Z,984.80
2019-01-22T08:22:24.128Z,984.82
2019-01-22T08:23:24.149Z,984.78
2019-01-22T08:24:24.148Z,984.80
2019-01-22T08:25:23.888Z,984.77
2019-01-22T08:26:24.205Z,984.82
2019-01-22T08:27:24.705Z,984.78
2019-01-22T08:28:22.925Z,984.75
2019-01-22T08:29:22.596Z,984.80
2019-01-22T08:30:22.759Z,984.76
2019-01-22T08:31:22.933Z,984.80
2019-01-22T08:32:22.953Z,984.79
2019-01-22T08:33:23.142Z,984.79
2019-01-22T08:34:23.600Z,984.81
2019-01-22T08:35:23.755Z,984.73
2019-01-22T08:36:23.612Z,984.75
2019-01-22T08:37:23.901Z,984.77
2019-01-22T08:38:23.906Z,984.74
2019-01-22T08:39:24.185Z,984.72
2019-01-22T08:40:24.292Z,984.76
2019-01-22T08:41:24.443Z,984.76
2019-01-22T08:42:24.591Z,984.71
2019-01-22T08:43:24.693Z,984.75
2019-01-22T08:44:27.969Z,984.73
2019-01-22T08:45:25.024Z,984.73
2019-01-22T08:46:25.280Z,984.70
2019-01-22T08:47:25.301Z,984.69
2019-01-22T08:48:25.630Z,984.64
2019-01-22T08:49:25.816Z,984.62
2019-01-22T08:50:25.897Z,984.57
2019-01-22T08:51:25.990Z,984.60
2019-01-22T08:52:26.198Z,984.58
2019-01-22T08:53:26.380Z,984.60
2019-01-22T08:54:26.565Z,984.61
2019-01-22T08:55:26.722Z,984.56
2019-01-22T08:56:26.899Z,984.54
2019-01-22T08:57:26.956Z,984.56
2019-01-22T08:58:27.159Z,984.56
2019-01-22T08:59:27.323Z,984.53
2019-01-22T09:00:27.432Z,984.57
2019-01-22T09:01:27.649Z,984.60
2019-01-22T09:02:27.785Z,984.57
2019-01-22T09:03:27.911Z,984.50
2019-01-22T09:04:28.311Z,984.54
2019-01-22T09:05:28.198Z,984.47
2019-01-22T09:06:28.297Z,984.44
2019-01-22T09:07:28.510Z,984.47
2019-01-22T09:08:28.639Z,984.50
2019-01-22T09:09:28.874Z,984.39
2019-01-22T09:10:28.957Z,984.46
2019-01-22T09:11:29.023Z,984.41
2019-01-22T09:12:29.309Z,984.42
2019-01-22T09:13:29.422Z,984.43
2019-01-22T09:14:30.213Z,984.43
2019-01-22T09:15:29.793Z,984.38
2019-01-22T09:16:29.924Z,984.40
2019-01-22T09:17:30.130Z,984.42
2019-01-22T09:18:30.190Z,984.38
2019-01-22T09:19:30.558Z,984.41
2019-01-22T09:20:30.648Z,984.41
2019-01-22T09:21:30.818Z,984.38
2019-01-22T09:22:31.002Z,984.39
2019-01-22T09:23:31.228Z,984.39
2019-01-22T09:24:31.156Z,984.42
2019-01-22T09:25:31.426Z,984.37
2019-01-22T09:26:31.666Z,984.35
2019-01-22T09:27:31.873Z,984.36
2019-01-22T09:28:31.990Z,984.36
2019-01-22T09:29:35.576Z,984.30
2019-01-22T09:30:32.287Z,984.30
2019-01-22T09:31:32.382Z,984.27
2019-01-22T09:32:32.530Z,984.28
2019-01-22T09:33:32.764Z,984.30
2019-01-22T09:34:32.916Z,984.27
2019-01-22T09:35:33.093Z,984.23
2019-01-22T09:36:33.342Z,984.28
2019-01-22T09:37:33.524Z,984.26
2019-01-22T09:38:33.574Z,984.31
2019-01-22T09:39:33.806Z,984.27
2019-01-22T09:40:34.033Z,984.25
2019-01-22T09:41:34.203Z,984.25
2019-01-22T09:42:34.366Z,984.24
2019-01-22T09:43:34.493Z,984.23
2019-01-22T09:44:34.604Z,984.20
2019-01-22T09:45:34.684Z,984.23
2019-01-22T09:46:35.180Z,984.22
2019-01-22T09:47:35.167Z,984.21
2019-01-22T09:48:35.373Z,984.21
2019-01-22T09:49:35.578Z,984.19
2019-01-22T09:50:35.715Z,984.22
2019-01-22T09:51:35.777Z,984.17
2019-01-22T09:52:35.953Z,984.21
2019-01-22T09:53:36.132Z,984.20
2019-01-22T09:54:36.367Z,984.17
2019-01-22T09:55:36.462Z,984.10
2019-01-22T09:56:36.649Z,984.09
2019-01-22T09:57:37.329Z,984.09
2019-01-22T09:58:37.008Z,984.06
2019-01-22T09:59:37.222Z,984.05
2019-01-22T10:00:37.426Z,984.03
2019-01-22T10:01:37.547Z,984.00
2019-01-22T10:02:37.765Z,983.96
2019-01-22T10:03:37.899Z,983.99
2019-01-22T10:04:37.960Z,983.97
2019-01-22T10:05:38.086Z,983.98
2019-01-22T10:06:38.275Z,983.98
2019-01-22T10:07:38.493Z,983.95
2019-01-22T10:08:38.636Z,983.96
2019-01-22T10:09:38.804Z,983.93
2019-01-22T10:10:38.889Z,983.93
2019-01-22T10:11:38.981Z,983.85
2019-01-22T10:12:39.208Z,983.84
2019-01-22T10:13:39.332Z,983.82
2019-01-22T10:14:39.528Z,983.83
2019-01-22T10:15:39.651Z,983.86
2019-01-22T10:16:39.894Z,983.87
2019-01-22T10:17:40.074Z,983.82
2019-01-22T10:18:40.199Z,983.81
2019-01-22T10:19:40.355Z,983.79
2019-01-22T10:20:40.573Z,983.79
2019-01-22T10:21:40.747Z,983.81
2019-01-22T10:22:40.795Z,983.77
2019-01-22T10:23:41.137Z,983.78
2019-01-22T10:24:41.181Z,983.78
2019-01-22T10:25:41.364Z,983.74
2019-01-22T10:26:41.496Z,983.79
2019-01-22T10:27:41.586Z,983.76
2019-01-22T10:28:41.858Z,983.74
2019-01-22T10:29:41.906Z,983.72
2019-01-22T10:30:42.166Z,983.68
2019-01-22T10:31:42.307Z,983.68
2019-01-22T10:32:42.436Z,983.68
2019-01-22T10:33:42.619Z,983.65
2019-01-22T10:34:42.887Z,983.64
2019-01-22T10:35:43.160Z,983.62
2019-01-22T10:36:43.134Z,983.64
2019-01-22T10:37:43.301Z,983.65
2019-01-22T10:38:43.499Z,983.62
2019-01-22T10:39:43.722Z,983.65
2019-01-22T10:40:43.828Z,983.60
2019-01-22T10:41:43.952Z,983.59
2019-01-22T10:42:44.079Z,983.61
2019-01-22T10:43:44.288Z,983.52
2019-01-22T10:44:44.433Z,983.54
2019-01-22T10:45:44.622Z,983.51
2019-01-22T10:46:44.868Z,983.49
2019-01-22T10:47:45.004Z,983.51
2019-01-22T10:48:45.233Z,983.48
2019-01-22T10:49:45.300Z,983.43
2019-01-22T10:50:45.413Z,983.43
2019-01-22T10:51:45.637Z,983.47
2019-01-22T10:52:45.782Z,983.42
2019-01-22T10:53:45.918Z,983.36
2019-01-22T10:54:46.070Z,983.33
2019-01-22T10:57:40.239Z,983.26
2019-01-22T10:58:40.241Z,983.26
2019-01-22T10:59:38.797Z,983.27
2019-01-22T11:00:38.740Z,983.16
2019-01-22T11:01:39.001Z,983.22
2019-01-22T11:02:39.127Z,983.22
2019-01-22T11:03:39.186Z,983.19
2019-01-22T11:04:39.498Z,983.16
2019-01-22T11:05:39.595Z,983.12
2019-01-22T11:06:39.821Z,983.09
2019-01-22T11:07:39.919Z,983.14
2019-01-22T11:08:40.014Z,983.15
2019-01-22T11:09:40.277Z,983.12
2019-01-22T11:10:40.447Z,983.08
2019-01-22T11:11:40.587Z,983.05
2019-01-22T11:12:41.470Z,983.06
2019-01-22T11:13:40.901Z,983.08
2019-01-22T11:14:41.069Z,983.04
2019-01-22T11:15:41.252Z,983.03
2019-01-22T11:16:41.431Z,983.00
2019-01-22T11:17:41.563Z,982.98
2019-01-22T11:18:41.712Z,982.98
2019-01-22T11:19:41.823Z,982.92
2019-01-22T11:20:42.123Z,982.91
2019-01-22T11:21:42.267Z,982.90
2019-01-22T11:23:44.823Z,982.89
2019-01-22T11:24:44.988Z,982.89
2019-01-22T11:25:45.670Z,982.85
2019-01-22T11:26:45.728Z,982.79
2019-01-22T11:27:45.776Z,982.80
2019-01-22T11:28:45.616Z,982.78
2019-01-22T11:29:46.101Z,982.80
2019-01-22T11:30:43.823Z,982.79
2019-01-22T11:31:43.991Z,982.73
2019-01-22T11:32:44.145Z,982.71
2019-01-22T11:33:44.312Z,982.69
2019-01-22T11:34:44.384Z,982.72
2019-01-22T11:35:44.579Z,982.64
2019-01-22T11:36:44.719Z,982.63
2019-01-22T11:37:44.890Z,982.57
2019-01-22T11:38:45.059Z,982.56
2019-01-22T11:39:45.247Z,982.57
2019-01-22T11:40:45.374Z,982.50
2019-01-22T11:41:45.576Z,982.54
2019-01-22T11:42:45.708Z,982.49
2019-01-22T11:43:45.916Z,982.46
2019-01-22T11:44:46.070Z,982.46
2019-01-22T11:45:46.189Z,982.45
2019-01-22T11:46:47.556Z,982.47
2019-01-22T11:47:46.577Z,982.44
2019-01-22T11:48:46.754Z,982.43
2019-01-22T11:49:46.946Z,982.42
2019-01-22T11:50:47.036Z,982.41
2019-01-22T11:51:47.157Z,982.41
2019-01-22T11:52:47.341Z,982.38
2019-01-22T11:53:47.557Z,982.29
2019-01-22T11:54:47.670Z,982.28
2019-01-22T11:55:50.594Z,982.27
2019-01-22T11:56:48.045Z,982.33
2019-01-22T11:57:48.249Z,982.24
2019-01-22T11:58:48.308Z,982.19
2019-01-22T11:59:48.449Z,982.11
2019-01-22T12:00:48.543Z,982.16
2019-01-22T12:01:48.739Z,982.10
2019-01-22T12:02:48.942Z,982.02
2019-01-22T12:03:49.109Z,982.08
2019-01-22T12:04:49.225Z,982.13
2019-01-22T12:05:53.160Z,982.03
2019-01-22T12:06:49.557Z,981.99
2019-01-22T12:07:49.706Z,981.97
2019-01-22T12:08:49.897Z,981.94
2019-01-22T12:09:50.031Z,981.90
2019-01-22T12:10:50.169Z,981.92
2019-01-22T12:11:50.293Z,981.91
2019-01-22T12:12:50.442Z,981.87
2019-01-22T12:13:54.068Z,981.85
2019-01-22T12:14:50.819Z,981.89
2019-01-22T12:15:50.951Z,981.85
2019-01-22T12:16:53.713Z,981.86
2019-01-22T12:17:53.506Z,981.78
2019-01-22T12:18:51.466Z,981.79
2019-01-22T12:19:51.659Z,981.78
2019-01-22T12:20:51.787Z,981.75
2019-01-22T12:21:51.926Z,981.75
2019-01-22T12:22:52.169Z,981.73
2019-01-22T12:23:52.296Z,981.68
2019-01-22T12:24:52.516Z,981.67
2019-01-22T12:25:57.243Z,981.66
2019-01-22T12:26:52.742Z,981.62
2019-01-22T12:27:52.898Z,981.61
2019-01-22T12:28:53.124Z,981.62
2019-01-22T12:29:53.212Z,981.60
2019-01-22T12:30:53.432Z,981.60
2019-01-22T12:31:53.544Z,981.58
2019-01-22T12:32:53.747Z,981.60
2019-01-22T12:33:53.889Z,981.54
2019-01-22T12:34:54.043Z,981.54
2019-01-22T12:35:54.223Z,981.51
2019-01-22T12:36:54.351Z,981.46
2019-01-22T12:37:54.553Z,981.41
2019-01-22T12:38:54.684Z,981.40
2019-01-22T12:39:54.862Z,981.41
2019-01-22T12:40:54.984Z,981.36
2019-01-22T12:41:55.181Z,981.38
2019-01-22T12:42:55.383Z,981.38
2019-01-22T12:43:55.533Z,981.39
2019-01-22T12:44:55.735Z,981.33
2019-01-22T12:45:55.799Z,981.23
2019-01-22T12:46:56.024Z,981.27
2019-01-22T12:47:56.150Z,981.26
2019-01-22T12:48:56.343Z,981.22
2019-01-22T12:49:56.542Z,981.16
2019-01-22T12:50:56.739Z,981.21
2019-01-22T12:51:56.847Z,981.20
2019-01-22T12:52:56.953Z,981.23
2019-01-22T12:53:57.130Z,981.19
2019-01-22T12:54:57.301Z,981.17
2019-01-22T12:56:04.242Z,981.17
2019-01-22T12:56:57.570Z,981.15
2019-01-22T12:57:57.779Z,981.10
2019-01-22T12:58:57.966Z,981.07
2019-01-22T12:59:58.045Z,981.07
2019-01-22T13:00:58.270Z,981.05
2019-01-22T13:01:58.464Z,980.98
2019-01-22T13:02:58.604Z,980.92
2019-01-22T13:03:58.746Z,980.99
2019-01-22T13:04:58.929Z,980.97
2019-01-22T13:05:59.145Z,980.91
2019-01-22T13:06:59.252Z,980.88
2019-01-22T13:07:59.355Z,980.87
2019-01-22T13:08:59.503Z,980.85
2019-01-22T13:09:59.665Z,980.85
2019-01-22T13:10:59.908Z,980.81
2019-01-22T13:12:00.057Z,980.80
2019-01-22T13:13:00.269Z,980.84
2019-01-22T13:14:00.353Z,980.80
2019-01-22T13:15:00.525Z,980.78
2019-01-22T13:16:00.735Z,980.76
2019-01-22T13:17:00.915Z,980.72
2019-01-22T13:18:00.966Z,980.70
2019-01-22T13:19:01.143Z,980.67
2019-01-22T13:20:01.359Z,980.67
2019-01-22T13:21:01.501Z,980.64
2019-01-22T13:22:01.629Z,980.62
2019-01-22T13:23:01.871Z,980.61
2019-01-22T13:24:01.928Z,980.54
2019-01-22T13:25:02.063Z,980.56
2019-01-22T13:26:02.305Z,980.55
2019-01-22T13:27:02.562Z,980.52
2019-01-22T13:28:02.670Z,980.47
2019-01-22T13:29:02.773Z,980.47
2019-01-22T13:30:02.906Z,980.45
2019-01-22T13:31:03.201Z,980.44
2019-01-22T13:32:03.297Z,980.42
2019-01-22T13:33:03.427Z,980.41
2019-01-22T13:34:03.731Z,980.39
2019-01-22T13:35:03.850Z,980.37
2019-01-22T13:36:03.958Z,980.42
2019-01-22T13:37:04.232Z,980.38
2019-01-22T13:38:04.407Z,980.41
2019-01-22T13:39:04.599Z,980.43
2019-01-22T13:40:04.683Z,980.31
2019-01-22T13:41:04.833Z,980.31
2019-01-22T13:42:05.043Z,980.27
2019-01-22T13:43:05.092Z,980.28
2019-01-22T13:44:05.335Z,980.27
2019-01-22T13:45:05.453Z,980.26
2019-01-22T13:46:05.580Z,980.26
2019-01-22T13:47:05.830Z,980.24
2019-01-22T13:48:05.986Z,980.19
2019-01-22T13:49:06.069Z,980.17
2019-01-22T13:50:06.672Z,980.14
2019-01-22T13:51:06.384Z,980.18
2019-01-22T13:52:06.680Z,980.15
2019-01-22T13:53:06.788Z,980.09
2019-01-22T13:54:06.933Z,980.11
2019-01-22T13:55:07.142Z,980.12
2019-01-22T13:56:07.267Z,980.12
2019-01-22T13:57:07.393Z,980.04
2019-01-22T13:58:07.614Z,980.04
2019-01-22T13:59:15.025Z,980.06
2019-01-22T14:00:08.847Z,980.04
2019-01-22T14:01:08.099Z,980.02
2019-01-22T14:02:08.274Z,980.01
2019-01-22T14:03:08.439Z,980.03
2019-01-22T14:04:09.005Z,980.00
2019-01-22T14:05:08.825Z,979.96
2019-01-22T14:06:08.925Z,979.95
2019-01-22T14:07:09.047Z,979.94
2019-01-22T14:08:10.002Z,979.93
2019-01-22T14:09:09.318Z,979.92
2019-01-22T14:10:09.476Z,979.92
2019-01-22T14:11:09.686Z,979.85
2019-01-22T14:12:09.820Z,979.86
2019-01-22T14:13:09.947Z,979.81
2019-01-22T14:14:10.177Z,979.82
2019-01-22T14:15:10.346Z,979.85
2019-01-22T14:16:10.579Z,979.80
2019-01-22T14:17:10.688Z,979.76
2019-01-22T14:18:10.811Z,979.78
2019-01-22T14:19:10.972Z,979.74
2019-01-22T14:20:11.141Z,979.75
2019-01-22T14:21:11.258Z,979.69
2019-01-22T14:22:11.502Z,979.67
2019-01-22T14:23:11.572Z,979.66
2019-01-22T14:24:11.805Z,979.67
2019-01-22T14:25:11.890Z,979.65
2019-01-22T14:26:12.109Z,979.68
2019-01-22T14:27:12.284Z,979.69
2019-01-22T14:28:12.475Z,979.66
2019-01-22T14:29:12.610Z,979.66
2019-01-22T14:30:12.783Z,979.63
2019-01-22T14:31:12.861Z,979.62
2019-01-22T14:32:13.027Z,979.57
2019-01-22T14:33:13.210Z,979.55
2019-01-22T14:34:13.334Z,979.55
2019-01-22T14:35:13.541Z,979.53
2019-01-22T14:36:13.622Z,979.53
2019-01-22T14:37:13.787Z,979.50
2019-01-22T14:38:13.981Z,979.45
2019-01-22T14:39:14.123Z,979.50
2019-01-22T14:40:14.350Z,979.51
2019-01-22T14:41:14.439Z,979.44
2019-01-22T14:42:14.621Z,979.44
2019-01-22T14:43:14.769Z,979.45
2019-01-22T14:44:15.676Z,979.39
2019-01-22T14:45:15.061Z,979.42
2019-01-22T14:46:15.223Z,979.40
2019-01-22T14:47:15.396Z,979.40
2019-01-22T14:48:15.553Z,979.43
2019-01-22T14:49:15.736Z,979.44
2019-01-22T14:50:15.956Z,979.45
2019-01-22T14:51:16.088Z,979.38
2019-01-22T14:52:16.220Z,979.35
2019-01-22T14:53:16.451Z,979.37
2019-01-22T14:54:16.525Z,979.32
2019-01-22T14:55:16.749Z,979.31
2019-01-22T14:56:16.794Z,979.34
2019-01-22T14:57:21.344Z,979.30
2019-01-22T14:58:17.144Z,979.29
2019-01-22T14:59:17.341Z,979.31
2019-01-22T15:00:17.498Z,979.30
2019-01-22T15:01:17.610Z,979.30
2019-01-22T15:02:17.804Z,979.26
2019-01-22T15:03:17.932Z,979.24
2019-01-22T15:04:18.063Z,979.25
2019-01-22T15:05:18.238Z,979.20
2019-01-22T15:06:18.441Z,979.23
2019-01-22T15:07:18.578Z,979.18
2019-01-22T15:08:18.793Z,979.20
2019-01-22T15:09:18.855Z,979.19
2019-01-22T15:10:19.092Z,979.18
2019-01-22T15:11:19.299Z,979.22
2019-01-22T15:12:19.419Z,979.17
2019-01-22T15:13:19.549Z,979.20
2019-01-22T15:14:19.801Z,979.19
2019-01-22T15:15:19.868Z,979.20
2019-01-22T15:16:20.035Z,979.18
2019-01-22T15:17:20.240Z,979.16
2019-01-22T15:18:20.424Z,979.16
2019-01-22T15:19:20.596Z,979.10
2019-01-22T15:20:20.692Z,979.11
2019-01-22T15:21:20.819Z,979.13
2019-01-22T15:22:21.581Z,979.08
2019-01-22T15:23:21.184Z,979.07
2019-01-22T15:24:21.345Z,979.01
2019-01-22T15:25:21.421Z,979.02
2019-01-22T15:26:21.655Z,978.97
2019-01-22T15:27:21.799Z,978.95
2019-01-22T15:28:21.987Z,979.01
2019-01-22T15:29:22.112Z,978.93
2019-01-22T15:30:22.304Z,978.95
2019-01-22T15:31:22.515Z,978.94
2019-01-22T15:32:22.542Z,978.91
2019-01-22T15:33:22.858Z,978.90
2019-01-22T15:34:22.895Z,978.87
2019-01-22T15:35:23.103Z,978.88
2019-01-22T15:36:23.288Z,978.83
2019-01-22T15:37:23.404Z,978.87
2019-01-22T15:38:23.581Z,978.77
2019-01-22T15:39:23.702Z,978.75
2019-01-22T15:40:23.915Z,978.81
2019-01-22T15:41:24.082Z,978.79
2019-01-22T15:42:24.183Z,978.79
2019-01-22T15:43:24.327Z,978.77
2019-01-22T15:44:24.471Z,978.78
2019-01-22T15:45:24.666Z,978.83
2019-01-22T15:46:24.894Z,978.83
2019-01-22T15:47:25.010Z,978.81
2019-01-22T15:48:25.208Z,978.83
2019-01-22T15:49:25.341Z,978.75
2019-01-22T15:50:25.536Z,978.81
2019-01-22T15:51:25.669Z,978.71
2019-01-22T15:52:25.859Z,978.75
2019-01-22T15:53:26.001Z,978.77
2019-01-22T15:54:26.073Z,978.71
2019-01-22T15:55:26.223Z,978.69
2019-01-22T15:56:26.470Z,978.69
2019-01-22T15:57:26.690Z,978.68
2019-01-22T15:58:26.842Z,978.65
2019-01-22T15:59:26.913Z,978.68
2019-01-22T16:00:27.070Z,978.67
2019-01-22T16:01:27.242Z,978.71
2019-01-22T16:02:27.404Z,978.67
2019-01-22T16:03:27.540Z,978.66
2019-01-22T16:04:27.676Z,978.61
2019-01-22T16:05:27.819Z,978.69
2019-01-22T16:06:28.042Z,978.66
2019-01-22T16:07:28.161Z,978.62
2019-01-22T16:08:28.287Z,978.63
2019-01-22T16:09:28.474Z,978.56
2019-01-22T16:10:28.648Z,978.59
2019-01-22T16:11:28.758Z,978.56
2019-01-22T16:12:28.971Z,978.56
2019-01-22T16:13:29.066Z,978.53
2019-01-22T16:14:29.217Z,978.55
2019-01-22T16:15:29.382Z,978.54
2019-01-22T16:16:29.623Z,978.53
2019-01-22T16:17:29.757Z,978.50
2019-01-22T16:18:29.900Z,978.55
2019-01-22T16:19:30.035Z,978.48
2019-01-22T16:20:30.212Z,978.51
2019-01-22T16:21:30.465Z,978.46
2019-01-22T16:22:30.492Z,978.44
2019-01-22T16:23:30.650Z,978.48
2019-01-22T16:24:30.818Z,978.46
2019-01-22T16:25:30.957Z,978.48
2019-01-22T16:26:31.190Z,978.44
2019-01-22T16:27:31.317Z,978.46
2019-01-22T16:28:31.530Z,978.44
2019-01-22T16:29:31.663Z,978.45
2019-01-22T16:30:31.794Z,978.47
2019-01-22T16:31:31.937Z,978.40
2019-01-22T16:32:32.083Z,978.41
2019-01-22T16:33:32.269Z,978.37
2019-01-22T16:34:32.379Z,978.35
2019-01-22T16:35:32.588Z,978.37
2019-01-22T16:36:32.752Z,978.35
2019-01-22T16:37:32.933Z,978.34
2019-01-22T16:38:33.071Z,978.36
2019-01-22T16:39:33.198Z,978.33
2019-01-22T16:40:33.432Z,978.34
2019-01-22T16:41:33.593Z,978.34
2019-01-22T16:42:33.778Z,978.36
2019-01-22T16:43:33.957Z,978.34